Terminal Aerodrome Forecast
Issued by NWS

Home | Current Version | Previous Version | Text Only | Print | Product List | Glossary On
Versions: 1 2 3 4 5 6 7 8 9 10 11 12
494
FTUS45 KABQ 282339
TAFFMN
TAF
KFMN 282339Z 2900/2924 13007KT P6SM VCSH BKN100
     FM290600 09008KT P6SM OVC090
     FM291900 13010KT P6SM VCSH OVC090=

USA.gov is the U.S. government's official web portal to all federal, state and local government web resources and services.